Time;durP1;ratioP1;P1;durP2;ratioP2;P2;SDS_P1;SDS_P2;PMS_P1;PMS_P2;Temp;Humidity;BMP_temperature;BMP_pressure;BME280_temperature;BME280_humidity;BME280_pressure;Samples;Min_cycle;Max_cycle;Signal;HPM_P1;HPM_P2
2023/07/30 00:00:32;;;;;;;0.00;0.00;;;;;;;17.31;100.00;100839.97;5029987;28;20021;-49
2023/07/30 00:02:57;;;;;;;0.00;0.00;;;;;;;17.31;100.00;100851.69;5030735;28;20053;-45
2023/07/30 00:05:23;;;;;;;0.00;0.00;;;;;;;17.33;100.00;100854.19;5031152;28;20410;-48
2023/07/30 00:07:48;;;;;;;0.00;0.00;;;;;;;17.37;100.00;100844.50;5030687;28;20394;-46
2023/07/30 00:10:14;;;;;;;0.00;0.00;;;;;;;17.38;100.00;100854.34;5030747;28;20495;-44
2023/07/30 00:12:40;;;;;;;0.00;0.00;;;;;;;17.37;100.00;100840.94;5030817;28;20178;-45
2023/07/30 00:15:07;;;;;;;0.00;0.00;;;;;;;17.37;100.00;100839.06;5031009;28;20025;-48
2023/07/30 00:17:32;;;;;;;0.00;0.00;;;;;;;17.36;100.00;100845.56;5031205;28;20067;-48
2023/07/30 00:19:57;;;;;;;0.00;0.00;;;;;;;17.37;100.00;100840.94;5030988;28;20061;-48
2023/07/30 00:22:23;;;;;;;0.00;0.00;;;;;;;17.39;100.00;100844.28;5030874;28;20029;-46
2023/07/30 00:24:48;;;;;;;0.00;0.00;;;;;;;17.39;100.00;100845.09;5030898;28;20030;-48
2023/07/30 00:27:13;;;;;;;0.00;0.00;;;;;;;17.40;100.00;100851.38;5030843;28;20049;-49
2023/07/30 00:29:39;;;;;;;0.00;0.00;;;;;;;17.40;100.00;100851.38;5031059;28;20059;-48
2023/07/30 00:32:05;;;;;;;0.00;0.00;;;;;;;17.40;100.00;100854.91;5029774;28;20013;-46
2023/07/30 00:34:30;;;;;;;0.00;0.00;;;;;;;17.38;100.00;100864.38;5031212;28;20140;-47
2023/07/30 00:36:55;;;;;;;0.00;0.00;;;;;;;17.42;100.00;100862.88;5031311;28;20036;-47
2023/07/30 00:39:21;;;;;;;0.00;0.00;;;;;;;17.38;100.00;100861.66;5034457;28;20025;-48
2023/07/30 00:41:46;;;;;;;0.00;0.00;;;;;;;17.35;100.00;100868.38;5034515;28;20064;-47
2023/07/30 00:44:11;;;;;;;0.00;0.00;;;;;;;17.33;100.00;100876.78;5034884;28;20024;-45
2023/07/30 00:46:37;;;;;;;0.00;0.00;;;;;;;17.37;100.00;100877.16;5034631;28;20029;-45
2023/07/30 00:49:02;;;;;;;0.00;0.00;;;;;;;17.36;100.00;100875.50;5033340;28;20503;-46
2023/07/30 00:51:29;;;;;;;0.00;0.00;;;;;;;17.39;100.00;100879.66;5034531;28;20112;-47
2023/07/30 00:53:55;;;;;;;0.00;0.00;;;;;;;17.41;100.00;100877.53;5032876;28;20017;-45
2023/07/30 00:56:20;;;;;;;0.00;0.00;;;;;;;17.42;100.00;100880.03;5034463;28;20735;-49
2023/07/30 00:58:48;;;;;;;0.00;0.00;;;;;;;17.38;100.00;100875.25;5033918;28;20573;-47
2023/07/30 01:01:13;;;;;;;0.00;0.00;;;;;;;17.39;100.00;100879.66;5033095;28;20033;-49
2023/07/30 01:03:40;;;;;;;0.00;0.00;;;;;;;17.40;100.00;100879.41;5034087;28;20049;-49
2023/07/30 01:06:05;;;;;;;0.00;0.00;;;;;;;17.40;100.00;100881.31;5034117;28;20079;-46
2023/07/30 01:08:31;;;;;;;0.00;0.00;;;;;;;17.42;100.00;100892.81;5033798;28;20314;-45
2023/07/30 01:10:57;;;;;;;0.00;0.00;;;;;;;17.42;100.00;100893.63;5032914;28;20114;-46
2023/07/30 01:13:22;;;;;;;0.00;0.00;;;;;;;17.42;100.00;100890.06;5033744;28;20084;-47
2023/07/30 01:15:48;;;;;;;0.00;0.00;;;;;;;17.40;100.00;100889.47;5049454;28;20021;-46
2023/07/30 01:18:13;;;;;;;0.00;0.00;;;;;;;17.40;100.00;100886.75;5049511;28;20030;-47
2023/07/30 01:20:39;;;;;;;0.00;0.00;;;;;;;17.37;100.00;100890.75;5034604;28;20063;-46
2023/07/30 01:23:05;;;;;;;0.00;0.00;;;;;;;17.40;100.00;100886.75;5033744;28;20385;-44
2023/07/30 01:25:33;;;;;;;0.00;0.00;;;;;;;17.39;100.00;100885.09;5034060;28;20388;-47
2023/07/30 01:28:01;;;;;;;0.00;0.00;;;;;;;17.38;100.00;100886.13;5032271;28;20032;-47
2023/07/30 01:30:33;;;;;;;0.00;0.00;;;;;;;17.37;100.00;100890.75;5033820;28;20022;-45
2023/07/30 01:32:59;;;;;;;0.00;0.00;;;;;;;17.37;100.00;100898.91;5048953;28;20100;-47
2023/07/30 01:35:28;;;;;;;0.00;0.00;;;;;;;17.30;100.00;100892.72;5032378;28;20053;-48
2023/07/30 01:37:54;;;;;;;0.00;0.00;;;;;;;17.33;100.00;100898.53;5049531;28;20467;-46
2023/07/30 01:40:20;;;;;;;0.00;0.00;;;;;;;17.29;100.00;100891.88;5032788;28;20030;-43
2023/07/30 01:42:45;;;;;;;0.00;0.00;;;;;;;17.28;100.00;100897.56;5049384;28;20040;-45
2023/07/30 01:45:10;;;;;;;0.00;0.00;;;;;;;17.29;100.00;100896.50;5032371;28;20026;-44
2023/07/30 01:47:36;;;;;;;0.00;0.00;;;;;;;17.26;100.00;100894.22;5033158;28;20021;-44
2023/07/30 01:50:01;;;;;;;0.00;0.00;;;;;;;17.28;100.00;100894.84;5033325;28;20026;-46
2023/07/30 01:52:27;;;;;;;0.00;0.00;;;;;;;17.28;100.00;100901.09;5031926;28;20072;-44
2023/07/30 01:54:52;;;;;;;0.00;0.00;;;;;;;17.29;100.00;100900.03;5033405;28;20033;-49
2023/07/30 01:57:17;;;;;;;0.00;0.00;;;;;;;17.30;100.00;100893.56;5033037;28;20073;-44
2023/07/30 01:59:43;;;;;;;0.00;0.00;;;;;;;17.33;100.00;100898.53;5033572;28;20490;-46
2023/07/30 02:02:08;;;;;;;0.00;0.00;;;;;;;17.37;100.00;100898.09;5035450;28;20037;-42
2023/07/30 02:04:33;;;;;;;0.00;0.00;;;;;;;17.38;100.00;100894.28;5035450;28;20030;-43
2023/07/30 02:06:59;;;;;;;0.00;0.00;;;;;;;17.34;100.00;100896.66;5034975;28;20546;-43
2023/07/30 02:09:25;;;;;;;0.00;0.00;;;;;;;17.33;100.00;100887.66;5031574;28;20113;-43
2023/07/30 02:11:50;;;;;;;0.00;0.00;;;;;;;17.36;100.00;100897.25;5031980;28;20116;-43
2023/07/30 02:14:16;;;;;;;0.00;0.00;;;;;;;17.37;100.00;100890.75;5032932;28;20034;-45
2023/07/30 02:16:41;;;;;;;0.00;0.00;;;;;;;17.40;100.00;100886.75;5033001;28;20046;-44
2023/07/30 02:19:08;;;;;;;0.00;0.00;;;;;;;17.38;100.00;100886.13;5032596;28;20029;-45
2023/07/30 02:21:36;;;;;;;0.03;0.00;;;;;;;17.41;100.00;100877.53;5031621;28;20102;-49
2023/07/30 02:24:01;;;;;;;0.00;0.00;;;;;;;17.41;100.00;100878.38;5032900;28;20044;-44
2023/07/30 02:26:26;;;;;;;0.00;0.00;;;;;;;17.40;100.00;100873.13;5032532;28;20033;-44
2023/07/30 02:28:52;;;;;;;0.00;0.00;;;;;;;17.43;100.00;100868.09;5032374;28;20486;-45
2023/07/30 02:31:17;;;;;;;0.00;0.00;;;;;;;17.42;100.00;100879.19;5033265;28;20512;-44
2023/07/30 02:33:42;;;;;;;0.00;0.00;;;;;;;17.43;100.00;100875.41;5032299;28;20033;-45
2023/07/30 02:36:08;;;;;;;0.00;0.00;;;;;;;17.45;100.00;100873.28;5032444;28;20119;-47
2023/07/30 02:38:33;;;;;;;0.10;0.00;;;;;;;17.49;100.00;100874.53;5032225;28;20032;-44
2023/07/30 02:40:58;;;;;;;0.00;0.00;;;;;;;17.48;100.00;100867.41;5032647;28;20285;-46
2023/07/30 02:43:24;;;;;;;0.00;0.00;;;;;;;17.52;100.00;100857.72;5032241;28;20411;-44
2023/07/30 02:45:49;;;;;;;0.00;0.00;;;;;;;17.53;100.00;100853.94;5032291;28;20459;-47
2023/07/30 02:48:14;;;;;;;0.00;0.00;;;;;;;17.58;100.00;100847.81;5032053;28;20047;-44
2023/07/30 02:50:40;;;;;;;0.00;0.00;;;;;;;17.60;100.00;100843.00;5032166;28;20402;-46
2023/07/30 02:53:05;;;;;;;0.00;0.00;;;;;;;17.58;100.00;100845.94;5031827;28;20034;-44
2023/07/30 02:55:31;;;;;;;0.00;0.00;;;;;;;17.62;100.00;100851.75;5032075;28;20097;-46
2023/07/30 02:57:56;;;;;;;0.00;0.00;;;;;;;17.60;100.00;100838.38;5031539;28;20103;-45
2023/07/30 03:00:21;;;;;;;0.00;0.00;;;;;;;17.60;100.00;100838.38;5031697;28;20084;-49
2023/07/30 03:02:47;;;;;;;0.00;0.00;;;;;;;17.63;100.00;100837.09;5031951;28;20121;-46
2023/07/30 03:05:12;;;;;;;0.00;0.00;;;;;;;17.66;100.00;100837.44;5031779;28;20033;-43
2023/07/30 03:07:37;;;;;;;0.00;0.00;;;;;;;17.65;100.00;100841.25;5032244;28;20095;-47
2023/07/30 03:10:03;;;;;;;0.00;0.00;;;;;;;17.66;100.00;100836.63;5031474;28;20072;-46
2023/07/30 03:12:28;;;;;;;0.00;0.00;;;;;;;17.65;100.00;100829.53;5031962;28;20029;-46
2023/07/30 03:14:54;;;;;;;0.00;0.00;;;;;;;17.65;100.00;100835.78;5031492;28;20034;-48
2023/07/30 03:17:19;;;;;;;0.00;0.00;;;;;;;17.67;100.00;100841.03;5031909;28;20384;-46
2023/07/30 03:19:46;;;;;;;0.00;0.00;;;;;;;17.67;100.00;100843.75;5031280;28;20384;-46
2023/07/30 03:22:11;;;;;;;0.00;0.00;;;;;;;17.65;100.00;100841.25;5031329;28;20475;-45
2023/07/30 03:24:37;;;;;;;0.00;0.00;;;;;;;17.66;100.00;100842.06;5031254;28;20029;-45
2023/07/30 03:27:02;;;;;;;0.00;0.00;;;;;;;17.62;100.00;100838.97;5031635;28;20025;-45
2023/07/30 03:29:28;;;;;;;0.00;0.00;;;;;;;17.60;100.00;100826.66;5030225;28;20025;-45
2023/07/30 03:31:53;;;;;;;0.00;0.00;;;;;;;17.60;100.00;100822.03;5032653;28;20101;-44
2023/07/30 03:34:18;;;;;;;0.00;0.00;;;;;;;17.52;100.00;100825.09;5031567;28;20037;-44
2023/07/30 03:36:44;;;;;;;0.00;0.00;;;;;;;17.50;100.00;100817.13;5032287;28;20025;-45
2023/07/30 03:39:09;;;;;;;0.00;0.00;;;;;;;17.49;100.00;100825.53;5031602;28;20605;-46
2023/07/30 03:41:35;;;;;;;0.00;0.00;;;;;;;17.44;100.00;100818.06;5031533;28;20037;-43
2023/07/30 03:44:00;;;;;;;0.00;0.00;;;;;;;17.42;100.00;100817.44;5031542;28;20036;-46
2023/07/30 03:46:26;;;;;;;0.00;0.00;;;;;;;17.42;100.00;100819.34;5031450;28;20033;-46
2023/07/30 03:48:51;;;;;;;0.00;0.00;;;;;;;17.39;100.00;100811.63;5031190;28;20029;-49
2023/07/30 03:51:16;;;;;;;0.00;0.00;;;;;;;17.33;100.00;100808.78;5031473;28;20029;-47
2023/07/30 03:53:42;;;;;;;0.00;0.00;;;;;;;17.35;100.00;100813.97;5031074;28;20017;-46
2023/07/30 03:56:08;;;;;;;0.00;0.00;;;;;;;17.32;100.00;100819.88;5031368;28;20360;-45
2023/07/30 03:58:33;;;;;;;0.00;0.00;;;;;;;17.34;100.00;100818.56;5031111;28;20042;-45
2023/07/30 04:00:58;;;;;;;0.00;0.00;;;;;;;17.29;100.00;100802.09;5031195;28;20021;-46
2023/07/30 04:03:24;;;;;;;0.00;0.00;;;;;;;17.33;100.00;100811.50;5030915;28;20079;-49
2023/07/30 04:05:49;;;;;;;0.00;0.00;;;;;;;17.30;100.00;100811.13;5029788;28;20444;-48
2023/07/30 04:08:16;;;;;;;0.00;0.00;;;;;;;17.32;100.00;100809.84;5031034;28;20037;-45
2023/07/30 04:10:41;;;;;;;0.00;0.00;;;;;;;17.31;100.00;100808.16;5031093;28;20467;-45
2023/07/30 04:13:07;;;;;;;0.00;0.00;;;;;;;17.29;100.00;100810.25;5035078;28;20078;-46
2023/07/30 04:15:33;;;;;;;0.00;0.00;;;;;;;17.31;100.00;100813.59;5035141;28;20099;-45
2023/07/30 04:17:58;;;;;;;0.00;0.00;;;;;;;17.31;100.00;100813.59;5035718;28;20041;-43
2023/07/30 04:20:24;;;;;;;0.00;0.00;;;;;;;17.35;100.00;100813.97;5035562;28;20036;-45
2023/07/30 04:22:49;;;;;;;0.00;0.00;;;;;;;17.33;100.00;100816.94;5033854;28;20506;-45
2023/07/30 04:25:14;;;;;;;0.00;0.00;;;;;;;17.32;100.00;100815.28;5035216;28;20136;-44
2023/07/30 04:27:40;;;;;;;0.00;0.00;;;;;;;17.32;100.00;100811.69;5034977;28;20468;-47
2023/07/30 04:30:06;;;;;;;0.00;0.00;;;;;;;17.36;100.00;100820.25;5034805;28;20117;-44
2023/07/30 04:32:31;;;;;;;0.00;0.00;;;;;;;17.31;100.00;100821.75;5034960;28;20057;-48
2023/07/30 04:34:57;;;;;;;0.00;0.00;;;;;;;17.30;100.00;100820.13;5034616;28;20083;-46
2023/07/30 04:37:22;;;;;;;0.00;0.00;;;;;;;17.29;100.00;100820.31;5034942;28;20029;-44
2023/07/30 04:39:48;;;;;;;0.00;0.00;;;;;;;17.23;100.00;100811.19;5034815;28;20060;-44
2023/07/30 04:42:15;;;;;;;0.00;0.00;;;;;;;17.25;100.00;100821.84;5034612;28;20060;-43
2023/07/30 04:44:40;;;;;;;0.00;0.00;;;;;;;17.26;100.00;100815.34;5034824;28;20022;-44
2023/07/30 04:47:06;;;;;;;0.00;0.00;;;;;;;17.28;100.00;100814.06;5034541;28;20044;-44
2023/07/30 04:49:31;;;;;;;0.00;0.00;;;;;;;17.29;100.00;100820.31;5034735;28;20109;-45
2023/07/30 04:51:56;;;;;;;0.00;0.00;;;;;;;17.27;100.00;100823.28;5034309;28;20026;-44
2023/07/30 04:54:22;;;;;;;0.00;0.00;;;;;;;17.28;100.00;100818.66;5034302;28;20084;-49
2023/07/30 04:56:47;;;;;;;0.00;0.00;;;;;;;17.30;100.00;100830.16;5034710;28;20028;-46
2023/07/30 04:59:13;;;;;;;0.00;0.00;;;;;;;17.25;100.00;100824.56;5034927;28;20042;-44
2023/07/30 05:01:38;;;;;;;0.00;0.00;;;;;;;17.24;100.00;100821.00;5034660;28;20056;-45
2023/07/30 05:04:03;;;;;;;0.00;0.00;;;;;;;17.28;100.00;100829.56;5034326;28;20107;-46
2023/07/30 05:06:29;;;;;;;0.00;0.00;;;;;;;17.27;100.00;100828.72;5035007;28;20124;-45
2023/07/30 05:08:54;;;;;;;0.00;0.00;;;;;;;17.32;100.00;100831.59;5034296;28;20504;-47
2023/07/30 05:11:19;;;;;;;0.00;0.00;;;;;;;17.31;100.00;100835.38;5034099;28;20064;-49
2023/07/30 05:13:45;;;;;;;0.00;0.00;;;;;;;17.34;100.00;100837.63;5034244;28;20045;-44
2023/07/30 05:16:10;;;;;;;0.00;0.00;;;;;;;17.34;100.00;100843.06;5034013;28;20482;-45
2023/07/30 05:18:36;;;;;;;0.00;0.00;;;;;;;17.42;100.00;100839.22;5034575;28;20095;-44
2023/07/30 05:21:01;;;;;;;0.00;0.00;;;;;;;17.44;100.00;100830.84;5035131;28;20063;-43
2023/07/30 05:23:26;;;;;;;0.00;0.00;;;;;;;17.45;100.00;100843.38;5034852;28;20112;-45
2023/07/30 05:25:52;;;;;;;0.00;0.00;;;;;;;17.48;100.00;100841.03;5035370;28;20495;-43
2023/07/30 05:28:17;;;;;;;0.00;0.00;;;;;;;17.47;100.00;100838.53;5034911;28;20025;-44
2023/07/30 05:30:43;;;;;;;0.00;0.00;;;;;;;17.53;100.00;100843.88;5034400;28;20025;-46
2023/07/30 05:33:08;;;;;;;0.00;0.00;;;;;;;17.57;100.00;100835.28;5034199;28;20423;-46
2023/07/30 05:35:34;;;;;;;0.00;0.00;;;;;;;17.63;100.00;100839.81;5034546;28;20090;-46
2023/07/30 05:38:00;;;;;;;0.00;0.00;;;;;;;17.66;100.00;100837.44;5034713;28;20032;-46
2023/07/30 05:40:25;;;;;;;0.00;0.00;;;;;;;17.69;100.00;100831.56;5033562;28;20037;-45
2023/07/30 05:42:51;;;;;;;0.00;0.00;;;;;;;17.75;100.00;100838.81;5034613;28;20026;-46
2023/07/30 05:45:16;;;;;;;0.00;0.00;;;;;;;17.72;100.00;100831.09;5033272;28;20120;-43
2023/07/30 05:47:41;;;;;;;0.00;0.00;;;;;;;17.81;100.00;100831.63;5034334;28;20075;-46
2023/07/30 05:50:08;;;;;;;0.00;0.00;;;;;;;17.75;100.00;100822.47;5034291;28;20025;-44
2023/07/30 05:52:33;;;;;;;0.00;0.00;;;;;;;17.78;100.00;100819.28;5034287;28;20029;-43
2023/07/30 05:54:59;;;;;;;0.00;0.00;;;;;;;17.74;100.00;100828.13;5034532;28;20387;-45
2023/07/30 05:57:24;;;;;;;0.00;0.00;;;;;;;17.71;100.00;100818.53;5033772;28;20046;-45
2023/07/30 05:59:50;;;;;;;0.00;0.00;;;;;;;17.76;100.00;100831.47;5034202;28;20021;-43
2023/07/30 06:02:15;;;;;;;0.00;0.00;;;;;;;17.74;100.00;100837.13;5033835;28;20037;-44
2023/07/30 06:04:40;;;;;;;0.00;0.00;;;;;;;17.68;100.00;100835.34;5033920;28;20025;-45
2023/07/30 06:07:06;;;;;;;0.00;0.00;;;;;;;17.71;100.00;100823.97;5033637;28;20377;-45
2023/07/30 06:09:31;;;;;;;0.00;0.00;;;;;;;17.71;100.00;100829.44;5033811;28;20029;-45
2023/07/30 06:12:00;;;;;;;0.00;0.00;;;;;;;17.66;100.00;100832.00;5033591;28;20045;-46
2023/07/30 06:14:26;;;;;;;0.00;0.00;;;;;;;17.60;100.00;100832.94;5031815;28;20029;-43
2023/07/30 06:16:52;;;;;;;0.00;0.00;;;;;;;17.64;100.00;100842.31;5031990;28;20061;-45
2023/07/30 06:19:18;;;;;;;0.00;0.00;;;;;;;17.63;100.00;100840.63;5031816;28;20529;-44
2023/07/30 06:21:43;;;;;;;0.00;0.00;;;;;;;17.63;100.00;100839.81;5033113;28;20029;-44
2023/07/30 06:24:09;;;;;;;0.00;0.00;;;;;;;17.66;100.00;100842.06;5033000;28;20025;-47
2023/07/30 06:26:34;;;;;;;0.00;0.00;;;;;;;17.63;100.00;100843.34;5033391;28;20076;-44
2023/07/30 06:28:59;;;;;;;0.00;0.00;;;;;;;17.68;100.00;100843.50;5035134;28;20026;-43
2023/07/30 06:31:25;;;;;;;0.00;0.00;;;;;;;17.66;100.00;100840.16;5033958;28;20037;-43
2023/07/30 06:33:50;;;;;;;0.00;0.00;;;;;;;17.77;100.00;100847.59;5034061;28;20026;-46
2023/07/30 06:36:16;;;;;;;0.00;0.00;;;;;;;17.81;100.00;100849.88;5032749;28;20029;-44
2023/07/30 06:38:41;;;;;;;0.00;0.00;;;;;;;17.87;100.00;100843.50;5031470;28;20365;-43
2023/07/30 06:41:06;;;;;;;0.00;0.00;;;;;;;17.87;100.00;100848.94;5033049;28;20254;-44
2023/07/30 06:43:32;;;;;;;0.00;0.00;;;;;;;17.98;100.00;100862.63;5032465;28;20082;-43
2023/07/30 06:45:57;;;;;;;0.00;0.00;;;;;;;17.96;100.00;100855.75;5031225;28;20068;-45
2023/07/30 06:48:22;;;;;;;0.00;0.00;;;;;;;17.85;100.00;100854.63;5030857;28;20486;-44
2023/07/30 06:50:48;;;;;;;0.00;0.00;;;;;;;17.82;100.00;100848.81;5031261;28;20029;-45
2023/07/30 06:53:13;;;;;;;0.00;0.00;;;;;;;17.71;100.00;100862.09;5031990;28;20510;-44
2023/07/30 06:55:38;;;;;;;0.00;0.00;;;;;;;17.69;100.00;100890.59;5032618;28;20076;-45
2023/07/30 06:58:04;;;;;;;0.00;0.00;;;;;;;17.41;100.00;100888.44;5032280;28;20081;-43
2023/07/30 07:00:29;;;;;;;0.00;0.00;;;;;;;17.11;100.00;100905.44;5031961;28;20089;-47
2023/07/30 07:02:55;;;;;;;0.00;0.00;;;;;;;16.88;100.00;100914.25;5032054;28;20109;-46
2023/07/30 07:05:20;;;;;;;0.00;0.00;;;;;;;16.77;100.00;100925.78;5032314;28;20037;-47
2023/07/30 07:07:45;;;;;;;0.00;0.00;;;;;;;16.72;100.00;100940.06;5032035;28;20025;-47
2023/07/30 07:10:11;;;;;;;0.00;0.00;;;;;;;16.60;100.00;100941.81;5031966;28;20033;-47
2023/07/30 07:12:39;;;;;;;0.00;0.00;;;;;;;16.64;100.00;100940.28;5031789;28;20025;-47
2023/07/30 07:15:05;;;;;;;0.00;0.00;;;;;;;16.73;100.00;100949.03;5031795;28;20111;-47
2023/07/30 07:17:31;;;;;;;0.00;0.00;;;;;;;16.77;100.00;100951.13;5032004;28;20471;-48
2023/07/30 07:19:57;;;;;;;0.00;0.00;;;;;;;16.82;100.00;100945.00;5031720;28;20379;-47
2023/07/30 07:22:22;;;;;;;0.00;0.00;;;;;;;16.90;100.00;100958.31;5031482;28;20026;-46
2023/07/30 07:24:48;;;;;;;0.00;0.00;;;;;;;16.87;100.00;100948.72;5031725;28;20033;-46
2023/07/30 07:27:13;;;;;;;0.00;0.00;;;;;;;16.96;100.00;100951.19;5031561;28;20112;-46
2023/07/30 07:29:39;;;;;;;0.00;0.00;;;;;;;17.23;100.00;100925.41;5031448;28;20120;-47
2023/07/30 07:32:05;;;;;;;0.00;0.00;;;;;;;17.65;100.00;100928.34;5031970;28;20024;-48
2023/07/30 07:34:30;;;;;;;0.10;0.00;;;;;;;18.07;100.00;100925.75;5031329;28;20570;-46
2023/07/30 07:36:55;;;;;;;0.00;0.00;;;;;;;18.46;100.00;100923.56;5031770;28;20075;-48
2023/07/30 07:39:21;;;;;;;0.00;0.00;;;;;;;18.77;100.00;100908.84;5031512;28;20427;-46
2023/07/30 07:41:46;;;;;;;0.00;0.00;;;;;;;18.99;100.00;100900.91;5031532;28;20022;-45
2023/07/30 07:44:11;;;;;;;0.00;0.00;;;;;;;18.50;100.00;100913.84;5031253;28;20036;-47
2023/07/30 07:46:37;;;;;;;0.00;0.00;;;;;;;18.47;100.00;100903.41;5031308;28;20095;-46
2023/07/30 07:49:02;;;;;;;0.00;0.00;;;;;;;18.47;100.00;100917.03;5031059;28;20399;-46
2023/07/30 07:51:27;;;;;;;0.00;0.00;;;;;;;18.59;100.00;100917.09;5031590;28;20053;-44
2023/07/30 07:53:53;;;;;;;0.00;0.00;;;;;;;18.33;100.00;100926.47;5029706;28;20049;-47
2023/07/30 07:56:18;;;;;;;0.00;0.00;;;;;;;18.13;100.00;100919.38;5031944;28;20061;-46
2023/07/30 07:58:44;;;;;;;0.00;0.00;;;;;;;18.27;100.00;100935.56;5031475;28;20356;-46
2023/07/30 08:01:09;;;;;;;0.00;0.00;;;;;;;18.44;100.00;100931.13;5031520;28;20032;-45
2023/07/30 08:03:34;;;;;;;0.00;0.00;;;;;;;18.33;100.00;100935.47;5031122;28;20034;-46
2023/07/30 08:06:00;;;;;;;0.00;0.00;;;;;;;18.43;100.00;100940.34;5031811;28;20029;-44
2023/07/30 08:08:26;;;;;;;0.00;0.00;;;;;;;18.33;100.00;100931.94;5031287;28;20593;-48
2023/07/30 08:10:52;;;;;;;0.00;0.00;;;;;;;18.35;100.00;100929.78;5031083;28;20033;-44
2023/07/30 08:13:17;;;;;;;0.00;0.00;;;;;;;18.71;100.00;100925.28;5030966;28;20033;-46
2023/07/30 08:15:42;;;;;;;0.00;0.00;;;;;;;19.24;100.00;100924.41;5031572;28;20357;-49
2023/07/30 08:18:08;;;;;;;0.00;0.00;;;;;;;19.10;100.00;100918.34;5030711;28;20037;-50
2023/07/30 08:20:33;;;;;;;0.00;0.00;;;;;;;19.18;100.00;100917.19;5031296;28;20030;-46
2023/07/30 08:22:59;;;;;;;0.00;0.00;;;;;;;19.38;100.00;100923.09;5031171;28;20396;-46
2023/07/30 08:25:24;;;;;;;0.00;0.00;;;;;;;19.65;100.00;100915.22;5030800;28;20057;-43
2023/07/30 08:27:49;;;;;;;0.00;0.00;;;;;;;20.11;100.00;100909.91;5030874;28;20021;-43
2023/07/30 08:30:15;;;;;;;0.00;0.00;;;;;;;20.56;100.00;100911.84;5030743;28;20392;-45
2023/07/30 08:32:42;;;;;;;0.00;0.00;;;;;;;20.80;100.00;100907.91;5030995;28;20500;-46
2023/07/30 08:35:08;;;;;;;;;;;;;;;20.54;100.00;100900.34;5031150;28;20468;-45
2023/07/30 08:37:33;;;;;;;0.00;0.00;;;;;;;20.47;100.00;100888.69;5029663;28;19996;-47
2023/07/30 08:39:58;;;;;;;0.00;0.00;;;;;;;20.84;100.00;100916.44;5030803;28;20392;-45
2023/07/30 08:42:24;;;;;;;0.00;0.00;;;;;;;21.54;100.00;100915.06;5031473;28;20029;-46
2023/07/30 08:44:49;;;;;;;0.00;0.00;;;;;;;21.62;100.00;100906.41;5030771;28;20104;-47
2023/07/30 08:47:15;;;;;;;0.00;0.00;;;;;;;21.57;100.00;100909.06;5030886;28;20021;-44
2023/07/30 08:49:40;;;;;;;0.00;0.00;;;;;;;22.01;100.00;100920.03;5030535;28;20156;-46
2023/07/30 08:52:09;;;;;;;0.00;0.00;;;;;;;22.36;100.00;100918.81;5030863;28;20421;-46
2023/07/30 08:54:34;;;;;;;0.00;0.00;;;;;;;23.12;100.00;100913.16;5030471;28;20029;-50
2023/07/30 08:57:01;;;;;;;0.13;0.00;;;;;;;23.77;100.00;100922.06;5030741;28;20391;-44
2023/07/30 08:59:29;;;;;;;0.00;0.00;;;;;;;22.99;100.00;100930.09;5033266;28;20029;-47
2023/07/30 09:01:55;;;;;;;0.00;0.00;;;;;;;22.55;100.00;100925.56;5034753;28;20488;-50
2023/07/30 09:04:21;;;;;;;0.00;0.00;;;;;;;22.86;100.00;100930.50;5034011;28;20037;-47
2023/07/30 09:06:50;;;;;;;0.00;0.00;;;;;;;24.01;100.00;100933.44;5049749;28;20112;-47
2023/07/30 09:09:15;;;;;;;0.00;0.00;;;;;;;23.69;100.00;100932.72;5033838;28;20057;-46
2023/07/30 09:11:41;;;;;;;0.00;0.00;;;;;;;22.78;100.00;100934.56;5034218;28;20060;-48
2023/07/30 09:14:07;;;;;;;0.00;0.00;;;;;;;21.64;100.00;100936.25;5033841;28;20037;-46
2023/07/30 09:16:33;;;;;;;0.00;0.00;;;;;;;20.81;100.00;100927.88;5049633;28;20026;-48
2023/07/30 09:18:58;;;;;;;0.00;0.00;;;;;;;20.89;100.00;100930.19;5033774;28;20116;-47
2023/07/30 09:21:31;;;;;;;0.00;0.00;;;;;;;20.78;100.00;100922.91;5033772;28;20159;-48
2023/07/30 09:23:58;;;;;;;0.00;0.00;;;;;;;20.50;100.00;100935.50;5032460;28;20025;-44
2023/07/30 09:26:23;;;;;;;0.00;0.00;;;;;;;20.22;100.00;100936.38;5033969;28;20021;-46
2023/07/30 09:28:48;;;;;;;0.00;0.00;;;;;;;20.10;100.00;100946.50;5033865;28;20032;-46
2023/07/30 09:31:14;;;;;;;0.00;0.00;;;;;;;20.52;100.00;100959.88;5033946;28;20026;-46
2023/07/30 09:33:43;;;;;;;0.00;0.00;;;;;;;21.29;100.00;100945.59;5034076;28;20490;-46
2023/07/30 09:36:09;;;;;;;0.00;0.00;;;;;;;22.29;100.00;100959.28;5033748;28;20068;-47
2023/07/30 09:38:44;;;;;;;0.00;0.00;;;;;;;22.81;100.00;100957.91;5032243;28;20507;-47
2023/07/30 09:41:11;;;;;;;0.00;0.00;;;;;;;22.99;100.00;100952.88;5033650;28;20072;-42
2023/07/30 09:43:37;;;;;;;0.00;0.00;;;;;;;23.30;100.00;100964.09;5032908;28;20045;-43
2023/07/30 09:46:06;;;;;;;0.00;0.00;;;;;;;23.31;100.00;100968.50;5034615;28;20025;-45
2023/07/30 09:48:32;;;;;;;0.00;0.00;;;;;;;22.98;100.00;100978.66;5033044;28;20029;-46
2023/07/30 09:50:59;;;;;;;0.00;0.00;;;;;;;23.12;100.00;100983.72;5033786;28;20037;-48
2023/07/30 09:53:25;;;;;;;0.00;0.00;;;;;;;23.58;100.00;100964.81;5033304;28;20101;-47
2023/07/30 09:55:50;;;;;;;0.00;0.00;;;;;;;23.25;100.00;100964.06;5033504;28;20029;-47
2023/07/30 09:58:16;;;;;;;0.00;0.00;;;;;;;23.62;98.84;100976.94;5015275;28;20050;-46
2023/07/30 10:00:42;;;;;;;0.00;0.00;;;;;;;23.42;100.00;100977.63;5035478;28;20045;-46
2023/07/30 10:03:10;;;;;;;0.00;0.00;;;;;;;23.34;100.00;100970.69;5031407;28;20442;-46
2023/07/30 10:05:37;;;;;;;0.00;0.00;;;;;;;23.18;100.00;100975.25;5032895;28;20506;-45
2023/07/30 10:08:25;;;;;;;0.00;0.00;;;;;;;22.99;100.00;100979.50;5032027;28;20017;-45
2023/07/30 10:10:53;;;;;;;0.00;0.00;;;;;;;22.30;100.00;100978.25;5032130;28;20456;-45
2023/07/30 10:13:18;;;;;;;;;;;;;;;22.38;100.00;100985.19;5032487;28;20021;-44
2023/07/30 10:15:44;;;;;;;0.00;0.00;;;;;;;22.41;100.00;100990.16;5033323;28;19920;-44
2023/07/30 10:18:09;;;;;;;0.00;0.00;;;;;;;22.11;100.00;100996.06;5031729;28;20275;-44
2023/07/30 10:20:35;;;;;;;0.00;0.00;;;;;;;22.23;100.00;100996.78;5032731;28;20099;-47
2023/07/30 10:23:01;;;;;;;0.00;0.00;;;;;;;21.87;100.00;100995.47;5032459;28;20165;-45
2023/07/30 10:25:31;;;;;;;0.00;0.00;;;;;;;21.35;100.00;100993.03;5032687;28;20392;-44
2023/07/30 10:27:58;;;;;;;0.00;0.00;;;;;;;21.45;100.00;100988.56;5014762;28;20508;-46
2023/07/30 10:30:30;;;;;;;0.00;0.00;;;;;;;21.49;100.00;100994.41;5032707;28;20031;-49
2023/07/30 10:32:55;;;;;;;0.00;0.00;;;;;;;21.54;100.00;100999.97;5032388;28;20051;-47
2023/07/30 10:35:43;;;;;;;0.00;0.00;;;;;;;21.82;100.00;100995.41;5032606;28;20036;-45
2023/07/30 10:38:30;;;;;;;0.00;0.00;;;;;;;21.58;100.00;101006.56;5032395;28;20029;-48
2023/07/30 10:41:12;;;;;;;0.00;0.00;;;;;;;21.50;100.00;101007.00;5032324;28;20502;-49
2023/07/30 10:43:43;;;;;;;0.00;0.00;;;;;;;22.03;100.00;101015.69;5032527;28;20079;-46
2023/07/30 10:46:10;;;;;;;0.00;0.00;;;;;;;22.06;100.00;101015.19;5032674;28;20064;-48
2023/07/30 10:48:37;;;;;;;0.00;0.00;;;;;;;21.63;100.00;101014.88;5032328;28;20129;-47
2023/07/30 10:51:05;;;;;;;0.00;0.00;;;;;;;21.13;100.00;101023.91;5032365;28;20026;-48
2023/07/30 10:53:31;;;;;;;0.00;0.00;;;;;;;21.05;100.00;101033.34;5032567;28;20040;-45
2023/07/30 10:56:03;;;;;;;0.00;0.00;;;;;;;21.04;100.00;101025.41;5032679;28;20021;-44
2023/07/30 10:58:30;;;;;;;0.00;0.00;;;;;;;21.19;100.00;101022.91;5033731;28;20052;-44
2023/07/30 11:00:56;;;;;;;0.28;0.00;;;;;;;21.44;100.00;101029.91;5034258;28;20041;-44
2023/07/30 11:03:25;;;;;;;0.00;0.00;;;;;;;21.43;100.00;101028.25;5031820;28;20036;-42
2023/07/30 11:05:50;;;;;;;0.00;0.00;;;;;;;21.57;100.00;101026.00;5032577;28;20029;-44
2023/07/30 11:08:15;;;;;;;0.00;0.00;;;;;;;22.31;100.00;101021.03;5031768;28;20375;-43
2023/07/30 11:10:45;;;;;;;0.00;0.00;;;;;;;22.91;100.00;101038.41;5032229;28;20195;-42